Time;durP1;ratioP1;P1;durP2;ratioP2;P2;SDS_P1;SDS_P2;PMS_P1;PMS_P2;Temp;Humidity;BMP_temperature;BMP_pressure;BME280_temperature;BME280_humidity;BME280_pressure;Samples;Min_cycle;Max_cycle;Signal;HPM_P1;HPM_P2
2022/08/20 00:02:13;;;;;;;2.47;1.42;;;21.00;71.70;;;23.41;49.61;97533.81;5006360;28;20050;-43
2022/08/20 00:04:41;;;;;;;1.40;1.23;;;20.90;72.20;;;23.41;49.50;97541.97;5006314;28;20352;-43
2022/08/20 00:07:10;;;;;;;1.50;1.35;;;20.90;72.00;;;23.49;49.65;97531.50;5006242;28;20372;-42
2022/08/20 00:09:37;;;;;;;3.75;1.55;;;21.00;71.50;;;23.32;50.11;97533.41;5005606;28;20053;-43
2022/08/20 00:12:06;;;;;;;1.67;1.50;;;20.90;72.00;;;23.33;50.03;97541.31;5006564;28;20057;-43
2022/08/20 00:14:35;;;;;;;1.88;1.65;;;20.90;72.50;;;23.35;50.15;97539.16;5007231;28;20080;-44
2022/08/20 00:17:04;;;;;;;2.17;1.50;;;20.90;72.60;;;23.34;50.20;97536.69;5011923;28;20433;-42
2022/08/20 00:19:33;;;;;;;1.70;1.60;;;20.90;72.60;;;23.46;49.74;97536.59;5011067;28;20329;-43
2022/08/20 00:22:01;;;;;;;1.92;1.55;;;20.90;72.30;;;23.41;49.99;97533.81;5010541;28;20062;-44
2022/08/20 00:24:29;;;;;;;3.08;1.60;;;20.90;72.60;;;23.46;49.87;97537.44;5011264;28;20072;-45
2022/08/20 00:26:56;;;;;;;1.77;1.60;;;20.90;72.20;;;23.42;49.81;97536.31;5010423;28;20358;-45
2022/08/20 00:29:24;;;;;;;3.83;1.73;;;21.00;72.30;;;23.42;50.03;97539.03;5009954;28;20057;-42
2022/08/20 00:31:52;;;;;;;1.45;1.33;;;20.90;72.70;;;23.48;49.74;97534.50;5010017;28;20045;-42
2022/08/20 00:34:20;;;;;;;1.85;1.50;;;20.90;72.30;;;23.44;49.89;97542.31;5010362;28;20062;-43
2022/08/20 00:36:48;;;;;;;2.00;1.70;;;20.90;72.40;;;23.53;49.58;97542.72;5010735;28;20266;-43
2022/08/20 00:39:16;;;;;;;2.45;1.85;;;21.00;72.20;;;23.61;49.40;97544.19;5011842;28;20091;-45
2022/08/20 00:41:44;;;;;;;2.55;1.50;;;21.10;71.80;;;23.52;49.61;97544.59;5009590;28;20060;-43
2022/08/20 00:44:21;;;;;;;2.78;1.83;;;21.00;72.10;;;23.55;49.72;97546.84;5012160;28;20054;-47
2022/08/20 00:46:50;;;;;;;1.80;1.60;;;20.90;72.20;;;23.63;49.38;97542.03;5009501;28;20050;-45
2022/08/20 00:49:30;;;;;;;1.73;1.55;;;21.00;72.00;;;23.64;49.40;97538.28;5010391;28;20050;-42
2022/08/20 00:52:07;;;;;;;1.50;1.40;;;21.00;72.30;;;23.46;49.87;97542.88;5010588;28;20379;-43
2022/08/20 00:54:52;;;;;;;2.20;1.70;;;20.90;73.00;;;23.56;49.48;97545.75;5010088;28;20049;-45
2022/08/20 00:57:56;;;;;;;2.00;1.67;;;20.90;72.90;;;23.61;49.48;97550.44;5007965;28;20060;-43
2022/08/20 01:00:36;;;;;;;2.72;1.50;;;20.90;73.00;;;23.64;49.49;97557.28;4989567;28;20064;-43
2022/08/20 01:03:08;;;;;;;2.90;1.55;;;20.90;72.70;;;23.64;49.38;97557.28;5009088;28;20054;-43
2022/08/20 01:05:47;;;;;;;2.55;1.73;;;20.90;72.40;;;23.63;49.23;97561.88;5009732;28;20054;-43
2022/08/20 01:08:20;;;;;;;2.45;1.50;;;21.00;72.30;;;23.58;49.48;97562.63;5008776;28;20065;-44
2022/08/20 01:10:52;;;;;;;1.50;1.40;;;20.90;73.40;;;23.58;49.57;97559.09;5007939;28;20065;-43
2022/08/20 01:13:22;;;;;;;3.13;1.53;;;20.90;72.70;;;23.63;49.36;97558.34;4993980;28;20049;-43
2022/08/20 01:15:54;;;;;;;1.88;1.52;;;20.90;72.50;;;23.55;49.58;97563.16;5009159;28;20050;-45
2022/08/20 01:18:26;;;;;;;1.70;1.60;;;20.80;73.00;;;23.44;49.88;97555.03;5009259;28;20075;-44
2022/08/20 01:20:59;;;;;;;3.00;1.58;;;20.80;73.60;;;23.44;50.00;97566.75;5008366;28;20053;-43
2022/08/20 01:24:10;;;;;;;2.10;1.50;;;20.80;73.70;;;23.51;49.82;97574.72;5007865;28;20056;-45
2022/08/20 01:26:44;;;;;;;2.25;1.48;;;20.80;74.00;;;23.51;50.05;97570.13;5008676;28;20052;-44
2022/08/20 01:29:28;;;;;;;2.28;1.60;;;20.80;73.70;;;23.34;51.02;97577.44;5008375;28;20068;-42
2022/08/20 01:32:00;;;;;;;3.40;1.80;;;20.80;74.30;;;23.46;50.40;97580.91;5009108;28;20061;-43
2022/08/20 01:34:28;;;;;;;2.78;1.85;;;20.80;74.00;;;23.45;50.34;97576.53;5009107;28;20041;-43
2022/08/20 01:36:57;;;;;;;2.40;1.60;;;20.80;73.80;;;23.43;50.62;97573.25;5009259;28;20333;-43
2022/08/20 01:39:30;;;;;;;2.28;1.55;;;20.80;73.90;;;23.51;50.11;97589.13;5008766;28;20271;-44
2022/08/20 01:42:21;;;;;;;3.13;1.60;;;20.90;73.70;;;23.51;50.35;97582.88;5009948;28;20244;-44
2022/08/20 01:44:49;;;;;;;1.60;1.50;;;21.00;73.90;;;23.44;50.57;97587.66;5009869;28;20050;-44
2022/08/20 01:47:23;;;;;;;1.70;1.60;;;20.80;74.10;;;23.54;50.20;97582.41;5009622;28;20063;-46
2022/08/20 01:50:04;;;;;;;1.77;1.60;;;20.90;73.80;;;23.47;50.21;97581.72;5009856;28;20054;-44
2022/08/20 01:53:08;;;;;;;1.70;1.42;;;20.80;73.90;;;23.39;50.61;97589.19;5008474;28;20050;-47
2022/08/20 01:55:37;;;;;;;2.00;1.50;;;20.80;74.50;;;23.34;50.63;97591.84;5010204;28;20050;-47
2022/08/20 01:58:05;;;;;;;1.92;1.73;;;20.70;74.80;;;23.44;50.29;97591.22;5008883;28;20054;-46
2022/08/20 02:00:34;;;;;;;2.78;1.67;;;20.80;74.90;;;23.44;50.51;97587.66;5007580;28;20124;-44
2022/08/20 02:03:02;;;;;;;2.80;1.63;;;20.70;74.70;;;23.35;50.71;97588.06;5008586;28;20045;-47
2022/08/20 02:05:32;;;;;;;2.53;2.28;;;20.70;75.40;;;23.35;50.68;97590.78;5009737;28;20064;-45
2022/08/20 02:08:01;;;;;;;2.70;1.90;;;20.60;75.00;;;23.28;50.76;97589.28;5008681;28;20355;-47
2022/08/20 02:10:30;;;;;;;4.50;1.98;;;20.60;75.50;;;23.25;51.03;97590.59;5009805;28;20344;-44
2022/08/20 02:13:00;;;;;;;2.75;1.95;;;20.60;75.50;;;23.33;50.75;97592.09;5008000;28;20050;-44
2022/08/20 02:15:28;;;;;;;2.38;1.90;;;20.60;75.10;;;23.27;50.92;97593.88;5009016;28;20057;-47
2022/08/20 02:18:13;;;;;;;3.45;1.88;;;20.60;75.20;;;23.25;50.96;97597.94;5008597;28;20120;-44
2022/08/20 02:20:43;;;;;;;1.75;1.60;;;20.60;75.80;;;23.27;51.03;97598.50;5007130;28;20065;-44
2022/08/20 02:23:12;;;;;;;2.10;1.90;;;20.60;75.60;;;23.28;51.08;97594.69;5007587;28;20263;-47
2022/08/20 02:25:43;;;;;;;2.45;1.90;;;20.60;75.60;;;23.27;51.04;97593.06;5010598;28;20402;-47
2022/08/20 02:28:15;;;;;;;2.25;1.90;;;20.60;75.80;;;23.28;51.04;97595.53;5009324;28;20060;-44
2022/08/20 02:30:48;;;;;;;2.05;1.70;;;20.60;75.80;;;23.31;50.93;97595.03;5008283;28;20049;-45
2022/08/20 02:33:20;;;;;;;3.65;2.15;;;20.60;75.90;;;23.34;50.69;97594.56;5006282;28;20058;-45
2022/08/20 02:35:55;;;;;;;2.13;1.88;;;20.60;76.30;;;23.34;50.68;97594.56;5009350;28;20048;-47
2022/08/20 02:38:24;;;;;;;3.00;2.10;;;20.60;76.00;;;23.33;50.75;97608.38;4990454;28;20060;-44
2022/08/20 02:40:52;;;;;;;4.75;2.10;;;20.60;75.90;;;23.35;50.88;97603.53;5006119;28;20060;-45
2022/08/20 02:43:20;;;;;;;2.38;2.08;;;20.60;75.90;;;23.34;51.07;97607.31;5007468;28;20050;-44
2022/08/20 02:45:48;;;;;;;3.75;1.98;;;20.60;76.20;;;23.39;50.78;97601.97;5008962;28;20637;-44
2022/08/20 02:48:20;;;;;;;3.30;2.25;;;20.60;76.10;;;23.39;51.12;97607.41;5008864;28;20063;-44
2022/08/20 02:51:00;;;;;;;2.67;1.80;;;20.70;76.20;;;23.42;51.02;97606.94;5007180;28;20344;-44
2022/08/20 02:53:34;;;;;;;2.33;2.05;;;20.70;76.20;;;23.48;50.79;97607.84;5007457;28;20060;-44
2022/08/20 02:56:07;;;;;;;2.40;2.20;;;20.70;75.90;;;23.52;50.84;97601.66;5007419;28;20118;-45
2022/08/20 02:58:36;;;;;;;3.25;2.28;;;20.80;75.70;;;23.54;50.48;97601.44;5007400;28;20052;-48
2022/08/20 03:01:11;;;;;;;3.50;1.88;;;20.80;75.70;;;23.55;50.55;97603.91;5008145;28;20052;-44
2022/08/20 03:03:41;;;;;;;2.72;2.17;;;20.80;75.90;;;23.59;50.48;97599.63;5006608;28;20072;-44
2022/08/20 03:06:11;;;;;;;2.85;2.20;;;20.80;75.60;;;23.61;50.52;97596.63;5008057;28;20053;-45
2022/08/20 03:08:40;;;;;;;3.30;2.65;;;20.80;75.50;;;23.62;50.54;97600.19;5007443;28;20054;-44
2022/08/20 03:11:08;;;;;;;4.25;2.03;;;20.80;75.60;;;23.56;50.71;97594.66;5007088;28;20062;-44
2022/08/20 03:13:36;;;;;;;2.88;2.53;;;20.80;76.00;;;23.58;50.58;97595.25;5006618;28;20053;-44
2022/08/20 03:16:06;;;;;;;3.03;2.50;;;20.80;75.90;;;23.55;50.76;97586.75;5007077;28;20060;-45
2022/08/20 03:18:39;;;;;;;3.95;2.33;;;20.80;76.10;;;23.55;50.95;97589.47;4989346;28;20068;-45
2022/08/20 03:21:08;;;;;;;3.22;2.50;;;20.80;76.10;;;23.52;51.04;97587.25;5008006;28;20052;-47
2022/08/20 03:23:38;;;;;;;2.72;2.38;;;20.80;76.50;;;23.48;51.18;97586.13;5005838;28;20068;-44
2022/08/20 03:26:10;;;;;;;2.95;2.60;;;20.70;76.90;;;23.47;51.25;97585.25;5007657;28;20052;-45
2022/08/20 03:28:40;;;;;;;3.45;2.67;;;20.70;77.20;;;23.42;51.16;97587.91;5008327;28;20061;-45
2022/08/20 03:31:09;;;;;;;3.45;2.75;;;20.70;77.70;;;23.33;51.67;97584.75;5006678;28;20045;-44
2022/08/20 03:33:41;;;;;;;;;;;20.70;77.70;;;23.32;51.77;97580.41;5007464;28;20244;-44
2022/08/20 03:36:23;;;;;;;2.88;2.47;;;20.70;78.20;;;23.37;51.64;97582.38;5006777;28;20232;-46
2022/08/20 03:38:58;;;;;;;4.80;3.33;;;20.60;78.30;;;23.34;51.78;97586.41;5007860;28;20052;-47
2022/08/20 03:41:27;;;;;;;3.30;2.58;;;20.60;77.80;;;23.33;51.78;97583.94;5006792;28;20054;-44
2022/08/20 03:43:56;;;;;;;4.10;2.67;;;20.70;77.80;;;23.23;52.04;97589.19;5008232;28;20066;-44
2022/08/20 03:46:25;;;;;;;3.97;2.72;;;20.70;78.30;;;23.26;52.28;97585.97;5007707;28;20225;-45
2022/08/20 03:48:53;;;;;;;3.47;3.15;;;20.60;78.40;;;23.23;52.32;97581.88;5007321;28;20271;-44
2022/08/20 03:51:29;;;;;;;3.88;2.70;;;20.60;78.80;;;23.26;52.00;97588.69;5007824;28;20060;-45
2022/08/20 03:53:57;;;;;;;5.30;3.08;;;20.60;78.60;;;23.31;52.19;97586.91;5005650;28;20048;-44
2022/08/20 03:56:26;;;;;;;3.42;3.10;;;20.70;78.50;;;23.30;52.06;97582.56;5007168;28;20058;-44
2022/08/20 03:58:54;;;;;;;3.60;2.67;;;20.70;79.00;;;23.23;52.38;97590.03;5007076;28;20046;-44
2022/08/20 04:01:22;;;;;;;3.30;2.97;;;20.60;78.90;;;23.21;52.34;97588.63;5006407;28;20229;-46
2022/08/20 04:04:10;;;;;;;3.47;3.17;;;20.60;79.20;;;23.35;52.08;97593.47;5006034;28;20061;-46
2022/08/20 04:06:40;;;;;;;3.35;2.80;;;20.70;78.80;;;23.30;52.25;97587.13;5006485;28;20060;-46
2022/08/20 04:09:10;;;;;;;3.45;3.15;;;20.60;78.80;;;23.28;52.49;97586.56;5004367;28;20431;-46
2022/08/20 04:11:41;;;;;;;3.58;2.70;;;20.60;79.10;;;23.20;52.74;97590.50;5004156;28;20051;-45
2022/08/20 04:14:10;;;;;;;4.00;3.55;;;20.60;79.40;;;23.23;52.57;97595.44;5006160;28;20046;-44
2022/08/20 04:16:45;;;;;;;7.30;3.10;;;20.60;79.70;;;23.27;52.43;97602.03;5006745;28;20343;-48
2022/08/20 04:19:15;;;;;;;3.55;3.05;;;20.60;79.70;;;23.22;52.75;97596.50;5006985;28;20273;-46
2022/08/20 04:21:47;;;;;;;6.00;3.42;;;20.60;80.00;;;23.28;52.83;97595.53;5006376;28;20053;-45
2022/08/20 04:24:15;;;;;;;3.35;3.05;;;20.60;79.90;;;23.28;52.70;97603.66;5005467;28;20363;-44
2022/08/20 04:27:01;;;;;;;;;;;20.60;80.10;;;23.28;52.91;97598.22;5006363;28;20050;-43
2022/08/20 04:29:32;;;;;;;3.30;2.90;;;20.50;81.00;;;23.24;52.75;97604.41;5006890;28;20501;-44
2022/08/20 04:32:05;;;;;;;4.32;3.45;;;20.50;81.20;;;23.02;53.51;97599.63;5005415;28;20375;-43
2022/08/20 04:34:34;;;;;;;4.88;3.40;;;20.40;81.90;;;23.18;53.10;97604.31;5007532;28;20060;-43
2022/08/20 04:37:03;;;;;;;3.78;3.28;;;20.50;81.40;;;23.12;53.25;97613.44;5006589;28;20045;-45
2022/08/20 04:39:32;;;;;;;6.72;3.40;;;20.50;81.30;;;23.17;53.23;97615.44;5005370;28;20052;-44
2022/08/20 04:41:59;;;;;;;3.85;2.90;;;20.50;81.50;;;23.18;53.10;97612.44;5005778;28;20054;-44
2022/08/20 04:44:27;;;;;;;5.07;3.42;;;20.50;81.30;;;23.17;53.31;97612.72;5006999;28;20058;-43
2022/08/20 04:46:55;;;;;;;3.88;3.25;;;20.50;81.60;;;23.18;53.32;97619.78;5006163;28;20360;-43
2022/08/20 04:49:25;;;;;;;4.25;3.17;;;20.50;81.70;;;23.22;53.07;97612.78;5007096;28;20505;-44
2022/08/20 04:51:54;;;;;;;4.40;3.85;;;20.50;81.50;;;23.24;53.06;97612.56;5006537;28;20061;-45
2022/08/20 04:54:22;;;;;;;4.50;3.30;;;20.50;82.00;;;23.21;53.01;97613.06;5006145;28;20538;-43
2022/08/20 04:56:50;;;;;;;3.92;3.25;;;20.50;82.20;;;23.24;52.96;97613.38;5006274;28;20048;-46
2022/08/20 04:59:18;;;;;;;4.80;3.60;;;20.50;82.00;;;23.29;53.20;97618.09;5005550;28;20064;-47
2022/08/20 05:01:46;;;;;;;6.15;3.15;;;20.50;81.80;;;23.25;52.99;97616.94;5009844;28;20323;-43
2022/08/20 05:04:13;;;;;;;6.25;3.90;;;20.50;82.00;;;23.23;53.32;97624.50;5009512;28;20045;-43
2022/08/20 05:06:41;;;;;;;4.00;3.10;;;20.50;82.30;;;23.24;53.13;97629.66;5009819;28;20066;-44
2022/08/20 05:09:09;;;;;;;5.57;3.42;;;20.50;82.30;;;23.29;53.24;97623.53;5009809;28;20076;-43
2022/08/20 05:11:37;;;;;;;4.18;3.47;;;20.50;82.20;;;23.35;53.10;97627.97;5009026;28;20657;-43
2022/08/20 05:14:07;;;;;;;4.07;3.63;;;20.60;81.90;;;23.33;53.08;97628.22;5010235;28;20053;-43
2022/08/20 05:16:39;;;;;;;4.47;3.42;;;20.60;82.00;;;23.37;53.05;97634.81;5009707;28;20060;-43
2022/08/20 05:19:12;;;;;;;4.28;3.15;;;20.60;81.80;;;23.32;53.32;97633.88;5009308;28;20046;-47
2022/08/20 05:21:40;;;;;;;4.15;2.90;;;20.70;82.20;;;23.28;53.35;97635.44;5008800;28;20236;-44
2022/08/20 05:24:09;;;;;;;3.58;3.20;;;20.60;82.20;;;23.28;53.58;97633.53;5009481;28;20058;-45
2022/08/20 05:26:37;;;;;;;4.00;3.55;;;20.60;82.90;;;23.33;53.69;97635.53;5009689;28;20057;-47
2022/08/20 05:29:06;;;;;;;3.97;3.40;;;20.60;83.10;;;23.29;53.64;97642.53;5008422;28;20054;-44
2022/08/20 05:31:34;;;;;;;4.47;3.40;;;20.60;83.40;;;23.21;53.96;97643.75;5009644;28;20251;-44
2022/08/20 05:34:10;;;;;;;5.15;3.50;;;20.60;84.10;;;23.30;53.95;97649.59;5009631;28;20229;-43
2022/08/20 05:36:42;;;;;;;4.97;4.18;;;20.60;84.20;;;23.30;53.75;97655.03;5009211;28;20060;-44
2022/08/20 05:39:12;;;;;;;4.32;3.70;;;20.60;84.30;;;23.27;54.00;97645.50;5009745;28;20041;-46
2022/08/20 05:41:40;;;;;;;4.85;4.10;;;20.50;84.40;;;23.32;53.75;97656.47;5008980;28;20054;-44
2022/08/20 05:44:12;;;;;;;3.88;3.25;;;20.60;84.60;;;23.35;53.78;97647.00;5009902;28;20260;-44
2022/08/20 05:46:43;;;;;;;5.93;3.75;;;20.60;84.20;;;23.33;53.97;97652.66;5008006;28;20089;-43
2022/08/20 05:49:15;;;;;;;4.55;3.33;;;20.60;84.40;;;23.37;53.93;97648.38;5009256;28;20366;-47
2022/08/20 05:51:43;;;;;;;3.92;3.38;;;20.70;84.40;;;23.38;53.80;97646.53;5008591;28;20088;-43
2022/08/20 05:54:12;;;;;;;7.13;4.20;;;20.70;84.30;;;23.36;53.64;97649.47;5008793;28;20723;-44
2022/08/20 05:56:41;;;;;;;4.68;3.58;;;20.70;83.80;;;23.38;53.59;97652.75;5009981;28;20064;-46
2022/08/20 05:59:11;;;;;;;8.40;3.45;;;20.70;84.70;;;23.33;53.86;97647.22;5008987;28;20072;-44
2022/08/20 06:01:40;;;;;;;7.25;3.50;;;20.70;84.10;;;23.45;53.71;97651.78;5009078;28;20041;-45
2022/08/20 06:04:30;;;;;;;6.15;4.10;;;20.80;83.70;;;23.56;53.46;97659.06;5007659;28;20052;-44
2022/08/20 06:07:04;;;;;;;4.13;3.33;;;20.80;83.40;;;23.60;53.26;97654.78;5008910;28;20356;-45
2022/08/20 06:09:33;;;;;;;4.28;3.85;;;20.80;83.40;;;23.65;53.00;97652.16;5009017;28;20064;-44
2022/08/20 06:12:05;;;;;;;4.07;3.42;;;20.90;83.00;;;23.58;53.23;97654.19;5007998;28;20050;-43
2022/08/20 06:14:34;;;;;;;5.47;4.50;;;20.80;83.20;;;23.54;53.18;97651.13;5007948;28;20050;-44
2022/08/20 06:17:15;;;;;;;5.40;3.65;;;20.80;83.30;;;23.62;53.21;97654.53;5008359;28;20367;-45
2022/08/20 06:19:45;;;;;;;4.00;3.30;;;20.80;83.30;;;23.67;53.05;97658.16;5008053;28;20050;-49
2022/08/20 06:22:14;;;;;;;4.72;3.78;;;20.90;83.20;;;23.63;53.25;97661.59;5008700;28;20050;-44
2022/08/20 06:24:51;;;;;;;4.25;3.60;;;20.80;83.20;;;23.73;53.06;97659.91;5008624;28;20048;-44
2022/08/20 06:27:20;;;;;;;8.25;4.32;;;20.90;83.00;;;23.76;52.89;97661.28;5007349;28;20045;-43
2022/08/20 06:29:49;;;;;;;9.88;3.97;;;20.90;82.70;;;23.80;52.92;97667.09;5008013;28;20052;-44
2022/08/20 06:32:20;;;;;;;5.93;3.38;;;21.00;82.70;;;23.83;52.89;97663.91;5008190;28;20050;-46
2022/08/20 06:35:01;;;;;;;4.65;4.00;;;21.00;82.50;;;23.90;52.63;97664.53;5009102;28;20045;-47
2022/08/20 06:37:32;;;;;;;3.83;3.30;;;21.10;82.30;;;23.85;52.79;97673.44;5008415;28;20042;-44
2022/08/20 06:40:23;;;;;;;7.18;3.28;;;21.00;82.60;;;23.91;52.74;97668.94;5008268;28;20056;-44
2022/08/20 06:42:51;;;;;;;4.80;3.78;;;21.10;82.60;;;23.95;52.52;97673.59;5009370;28;20045;-44
2022/08/20 06:45:24;;;;;;;4.70;3.85;;;21.10;82.10;;;23.85;52.84;97673.44;5007424;28;20054;-46
2022/08/20 06:48:00;;;;;;;4.30;3.63;;;21.10;82.30;;;23.75;53.28;97675.97;5008359;28;20344;-46
2022/08/20 06:50:37;;;;;;;8.02;3.88;;;21.00;82.80;;;23.83;52.99;97672.88;5006577;28;20053;-44
2022/08/20 06:53:17;;;;;;;8.82;3.88;;;21.00;82.50;;;23.85;52.85;97675.34;5007289;28;20046;-45
2022/08/20 06:55:51;;;;;;;9.73;4.30;;;21.10;82.20;;;23.86;53.02;97682.41;5008792;28;20054;-44
2022/08/20 06:58:21;;;;;;;4.70;4.30;;;21.20;82.10;;;23.85;52.77;97678.88;5006429;28;20052;-47
2022/08/20 07:01:10;;;;;;;4.55;3.83;;;21.20;82.10;;;23.76;53.21;97672.16;5007095;28;20045;-45
2022/08/20 07:03:41;;;;;;;6.60;4.30;;;21.20;82.10;;;23.92;52.75;97671.41;5007710;28;20063;-47
2022/08/20 07:06:24;;;;;;;4.25;3.65;;;21.20;81.80;;;24.08;52.74;97674.34;5006500;28;20061;-44
2022/08/20 07:08:54;;;;;;;5.25;4.38;;;21.30;81.40;;;24.00;52.77;97674.75;5008654;28;20057;-44
2022/08/20 07:11:23;;;;;;;5.43;3.90;;;21.40;81.50;;;24.15;52.79;97677.72;5005967;28;20064;-47
2022/08/20 07:13:56;;;;;;;7.60;4.00;;;21.50;81.40;;;24.13;52.47;97686.13;5006780;28;20068;-46
2022/08/20 07:16:26;;;;;;;11.38;3.92;;;21.50;80.80;;;24.15;52.38;97678.53;5008438;28;20073;-44
2022/08/20 07:18:54;;;;;;;5.07;4.47;;;21.50;80.70;;;24.06;52.72;97681.94;5008068;28;20054;-46
2022/08/20 07:21:22;;;;;;;7.78;4.65;;;21.50;80.70;;;24.11;52.74;97676.56;5006502;28;20056;-44
2022/08/20 07:23:49;;;;;;;7.13;4.35;;;21.50;81.00;;;24.06;52.59;97676.50;5007604;28;20052;-47
2022/08/20 07:26:18;;;;;;;6.20;4.32;;;21.50;80.40;;;24.11;52.68;97679.31;5006664;28;20272;-44
2022/08/20 07:28:46;;;;;;;7.78;4.53;;;21.50;80.60;;;24.18;52.43;97690.84;5006669;28;20065;-45
2022/08/20 07:34:03;;;;;;;7.32;4.97;;;21.60;79.90;;;24.18;52.38;97688.94;5007301;28;20054;-44
2022/08/20 07:36:32;;;;;;;6.43;5.82;;;21.60;79.80;;;24.07;52.74;97687.13;5000318;28;20048;-47
2022/08/20 07:39:00;;;;;;;6.10;5.47;;;21.60;79.80;;;24.26;52.31;97684.97;5007460;28;20241;-43
2022/08/20 07:41:33;;;;;;;6.65;5.70;;;21.70;79.30;;;24.27;52.08;97691.25;5006926;28;20041;-44
2022/08/20 07:44:01;;;;;;;6.50;5.65;;;21.80;79.00;;;24.33;51.84;97692.97;5005439;28;20122;-45
2022/08/20 07:46:30;;;;;;;6.22;5.60;;;21.80;78.50;;;24.45;51.80;97703.78;5006709;28;20060;-47
2022/08/20 07:48:58;;;;;;;6.57;5.97;;;21.90;78.10;;;24.53;51.59;97704.19;5006722;28;20064;-44
2022/08/20 07:51:27;;;;;;;7.45;5.93;;;22.00;77.70;;;24.54;51.65;97705.00;5006279;28;20337;-45
2022/08/20 07:53:57;;;;;;;7.45;6.38;;;22.00;78.10;;;24.72;51.33;97714.81;5006945;28;20387;-45
2022/08/20 07:56:25;;;;;;;9.10;5.82;;;22.10;77.80;;;24.72;51.11;97707.47;5005608;28;20049;-44
2022/08/20 07:58:57;;;;;;;9.90;6.43;;;22.10;76.80;;;24.74;51.04;97708.03;5004079;28;20058;-46
2022/08/20 08:01:29;;;;;;;10.27;5.72;;;22.20;77.10;;;24.85;50.67;97710.88;5015409;28;20050;-42
2022/08/20 08:04:00;;;;;;;13.43;6.55;;;22.20;76.30;;;24.90;50.67;97716.41;5013641;28;20233;-41
2022/08/20 08:06:29;;;;;;;6.35;5.45;;;22.30;76.20;;;24.81;50.74;97702.38;5013706;28;20068;-41
2022/08/20 08:09:08;;;;;;;7.22;5.80;;;22.20;75.80;;;24.86;50.61;97715.25;5015613;28;20079;-43
2022/08/20 08:11:40;;;;;;;8.70;4.80;;;22.30;75.50;;;24.79;50.68;97704.53;5010708;28;20065;-42
2022/08/20 08:14:22;;;;;;;6.65;4.00;;;22.20;75.80;;;24.70;50.62;97715.06;4999613;28;20052;-42
2022/08/20 08:16:56;;;;;;;5.50;4.65;;;22.10;76.00;;;24.48;51.30;97711.41;5015236;28;20591;-42
2022/08/20 08:19:29;;;;;;;6.38;5.28;;;21.90;77.00;;;24.43;52.50;97717.63;5012318;28;20046;-43
2022/08/20 08:21:57;;;;;;;5.88;5.32;;;21.80;80.10;;;24.49;53.49;97711.19;5014162;28;20057;-42
2022/08/20 08:24:25;;;;;;;7.90;4.78;;;21.70;82.80;;;24.58;52.99;97708.06;5006038;28;20245;-42
2022/08/20 08:26:55;;;;;;;4.50;4.13;;;21.80;82.70;;;24.58;52.67;97699.88;5007228;28;20072;-42
2022/08/20 08:29:23;;;;;;;5.43;4.80;;;21.80;82.30;;;24.44;52.78;97708.38;5005971;28;20615;-43
2022/08/20 08:31:51;;;;;;;5.60;4.63;;;21.70;82.00;;;24.47;52.65;97712.50;5006578;28;20054;-43
2022/08/20 08:34:18;;;;;;;5.22;3.67;;;21.80;81.90;;;24.63;52.80;97708.97;5008215;28;20054;-45
2022/08/20 08:36:46;;;;;;;4.65;4.10;;;21.90;81.80;;;24.54;52.59;97705.00;5008782;28;20351;-42
2022/08/20 08:39:15;;;;;;;5.60;4.68;;;21.90;80.90;;;24.68;52.30;97709.03;5009528;28;20054;-43
2022/08/20 08:41:50;;;;;;;3.95;3.47;;;22.10;80.00;;;24.79;51.84;97701.00;5009943;28;20062;-43
2022/08/20 08:44:29;;;;;;;4.72;3.38;;;22.20;78.70;;;24.81;51.37;97698.84;5012307;28;20054;-42
2022/08/20 08:47:17;;;;;;;4.22;3.20;;;22.20;77.80;;;24.85;50.84;97706.25;5008810;28;20248;-43
2022/08/20 08:49:46;;;;;;;4.13;3.03;;;22.30;76.50;;;24.73;51.44;97705.56;5010597;28;20046;-42
2022/08/20 08:52:32;;;;;;;3.28;2.55;;;22.30;77.20;;;24.80;50.97;97708.09;5008682;28;20061;-42
2022/08/20 08:55:05;;;;;;;4.55;2.40;;;22.30;75.90;;;24.91;50.53;97713.44;5010962;28;20061;-43
2022/08/20 08:57:33;;;;;;;2.65;2.10;;;22.50;75.40;;;24.93;50.01;97710.44;5008805;28;20058;-42
2022/08/20 09:00:10;;;;;;;3.05;2.63;;;22.50;74.70;;;24.86;50.31;97718.00;5010005;28;20068;-42
2022/08/20 09:02:41;;;;;;;3.15;2.80;;;22.40;74.00;;;25.07;49.94;97722.63;5010351;28;20061;-43
2022/08/20 09:05:15;;;;;;;2.65;2.45;;;22.60;73.70;;;24.96;49.35;97724.38;5009020;28;20053;-43
2022/08/20 09:07:50;;;;;;;7.93;3.03;;;22.50;72.80;;;25.02;49.93;97716.28;5008528;28;20058;-42
2022/08/20 09:10:22;;;;;;;4.13;2.90;;;22.50;74.00;;;25.27;49.08;97719.34;5009801;28;20046;-43
2022/08/20 09:12:51;;;;;;;3.85;3.28;;;22.70;72.30;;;25.21;49.86;97709.44;5006868;28;20060;-42
2022/08/20 09:15:20;;;;;;;4.10;2.67;;;22.60;73.70;;;25.40;49.17;97707.25;5010078;28;20058;-42
2022/08/20 09:17:48;;;;;;;3.78;3.28;;;22.80;72.20;;;25.05;49.39;97705.72;5009052;28;20058;-42
2022/08/20 09:20:17;;;;;;;10.95;3.47;;;22.60;71.40;;;25.12;48.97;97721.84;5008707;28;20064;-42
2022/08/20 09:22:44;;;;;;;4.07;2.47;;;22.70;71.30;;;25.18;48.80;97709.94;5010173;28;20057;-41
2022/08/20 09:25:15;;;;;;;3.40;2.33;;;22.70;71.90;;;25.24;48.92;97714.44;5009907;28;20052;-42
2022/08/20 09:27:42;;;;;;;6.35;3.35;;;22.70;71.70;;;25.26;48.76;97715.00;5009063;28;20060;-44
2022/08/20 09:30:14;;;;;;;10.23;3.53;;;22.80;71.80;;;25.34;49.05;97716.44;5009740;28;20053;-42
2022/08/20 09:32:45;;;;;;;3.65;2.65;;;22.90;71.50;;;25.35;48.51;97718.06;5010798;28;20053;-43
2022/08/20 09:35:12;;;;;;;9.05;2.70;;;22.90;71.10;;;25.52;48.15;97715.28;5041303;28;20057;-43
2022/08/20 09:37:40;;;;;;;3.58;2.70;;;23.00;69.90;;;25.47;48.15;97710.56;5010851;28;20065;-44
2022/08/20 09:40:09;;;;;;;3.72;2.65;;;23.00;70.60;;;25.54;47.85;97713.13;5009237;28;20053;-42
2022/08/20 09:42:38;;;;;;;4.60;3.17;;;22.90;69.60;;;25.43;48.13;97708.63;5009890;28;20050;-43
2022/08/20 09:45:10;;;;;;;3.63;2.97;;;22.90;70.30;;;25.54;48.27;97710.38;5009200;28;20057;-43
2022/08/20 09:47:40;;;;;;;2.55;2.35;;;23.00;70.40;;;25.75;48.15;97705.97;5007713;28;20068;-43
2022/08/20 09:50:22;;;;;;;3.75;2.70;;;23.20;70.10;;;25.49;49.06;97705.72;5008680;28;20046;-42
2022/08/20 09:52:53;;;;;;;6.22;2.70;;;23.20;70.90;;;25.56;48.68;97708.22;5003553;28;20046;-42
2022/08/20 09:55:32;;;;;;;3.58;2.13;;;23.10;70.30;;;25.49;49.03;97708.44;5008501;28;20271;-43
2022/08/20 10:01:13;;;;;;;2.17;1.73;;;23.00;72.00;;;25.33;49.45;97709.34;4988153;28;20058;-41
2022/08/20 10:03:44;;;;;;;3.63;1.40;;;22.90;72.00;;;25.27;48.61;97724.78;4988336;28;20073;-42
2022/08/20 10:06:13;;;;;;;4.13;1.50;;;22.90;70.40;;;25.35;48.79;97712.63;4989426;28;20061;-42
2022/08/20 10:08:42;;;;;;;2.60;2.15;;;22.80;70.50;;;25.17;49.03;97718.38;4990523;28;20065;-41
2022/08/20 10:11:10;;;;;;;3.33;1.58;;;22.90;71.20;;;25.02;49.38;97725.28;4987429;28;20099;-42
2022/08/20 10:13:38;;;;;;;2.20;1.30;;;22.70;71.50;;;24.85;49.91;97724.50;4987613;28;20053;-41
2022/08/20 10:16:06;;;;;;;4.13;1.67;;;22.40;72.10;;;24.93;49.69;97732.22;4990530;28;20054;-45
2022/08/20 10:18:35;;;;;;;1.45;1.35;;;22.40;72.90;;;24.75;50.36;97727.91;4988951;28;20240;-42
2022/08/20 10:21:10;;;;;;;2.28;1.90;;;22.30;74.50;;;24.79;50.64;97720.88;4989436;28;20845;-42
2022/08/20 10:23:37;;;;;;;1.85;1.75;;;22.20;75.00;;;24.91;50.29;97721.59;4989032;28;20046;-45
2022/08/20 10:26:10;;;;;;;1.63;1.52;;;22.30;74.70;;;24.76;49.96;97729.56;4989796;28;20226;-42
2022/08/20 10:28:38;;;;;;;1.00;1.00;;;22.10;73.40;;;24.65;49.90;97720.41;4989976;28;20056;-42
2022/08/20 10:31:08;;;;;;;1.42;1.33;;;22.10;73.50;;;24.57;50.21;97731.72;4988737;28;20046;-44
2022/08/20 10:33:38;;;;;;;2.88;1.42;;;22.10;73.40;;;24.77;49.89;97710.22;4988159;28;20050;-43
2022/08/20 10:36:14;;;;;;;2.63;1.35;;;22.20;73.30;;;24.73;49.55;97719.16;4990032;28;20403;-41
2022/08/20 10:38:43;;;;;;;1.88;1.40;;;22.30;72.40;;;24.56;50.15;97711.88;5018982;28;20064;-42
2022/08/20 10:41:11;;;;;;;1.48;1.38;;;22.10;73.90;;;24.70;49.97;97706.06;4988776;28;20077;-41
2022/08/20 10:43:39;;;;;;;3.17;2.10;;;22.10;73.40;;;24.84;50.15;97709.25;4988613;28;20328;-41
2022/08/20 10:46:07;;;;;;;1.90;1.48;;;22.30;73.80;;;24.83;49.96;97700.22;4988032;28;20054;-42